createdAt,value
2022-10-09T00:01:29.619Z,94.70
2022-10-09T00:03:57.622Z,94.70
2022-10-09T00:06:34.371Z,94.70
2022-10-09T00:09:02.284Z,94.70
2022-10-09T00:11:30.456Z,94.60
2022-10-09T00:13:58.685Z,94.60
2022-10-09T00:16:26.185Z,94.50
2022-10-09T00:18:53.419Z,94.50
2022-10-09T00:21:28.649Z,94.60
2022-10-09T00:23:57.191Z,94.60
2022-10-09T00:26:24.470Z,94.50
2022-10-09T00:28:51.636Z,94.50
2022-10-09T00:31:19.301Z,94.50
2022-10-09T00:33:46.447Z,94.50
2022-10-09T00:36:15.849Z,94.30
2022-10-09T00:38:42.899Z,94.30
2022-10-09T00:41:16.020Z,94.20
2022-10-09T00:43:56.439Z,94.10
2022-10-09T00:46:45.027Z,93.80
2022-10-09T00:49:16.051Z,93.70
2022-10-09T00:51:43.902Z,93.50
2022-10-09T00:54:14.641Z,93.50
2022-10-09T00:56:41.833Z,93.50
2022-10-09T00:59:08.798Z,93.40
2022-10-09T01:01:35.710Z,93.20
2022-10-09T01:04:02.550Z,93.20
2022-10-09T01:07:00.359Z,93.10
2022-10-09T01:09:48.940Z,93.20
2022-10-09T01:12:47.604Z,93.10
2022-10-09T01:15:24.608Z,93.00
2022-10-09T01:17:53.891Z,93.10
2022-10-09T01:20:38.511Z,93.10
2022-10-09T01:23:15.968Z,93.10
2022-10-09T01:26:10.813Z,92.90
2022-10-09T01:28:39.090Z,92.90
2022-10-09T01:31:06.716Z,92.90
2022-10-09T01:33:34.034Z,92.90
2022-10-09T01:36:01.845Z,92.90
2022-10-09T01:38:29.648Z,92.90
2022-10-09T01:40:56.811Z,92.90
2022-10-09T01:43:23.550Z,92.90
2022-10-09T01:45:50.325Z,92.80
2022-10-09T01:48:23.113Z,92.70
2022-10-09T01:50:58.111Z,92.50
2022-10-09T01:53:26.042Z,92.20
2022-10-09T01:56:07.678Z,92.00
2022-10-09T01:58:46.661Z,91.90
2022-10-09T02:01:31.789Z,91.80
2022-10-09T02:03:59.813Z,91.90
2022-10-09T02:06:28.118Z,91.90
2022-10-09T02:08:55.779Z,91.90
2022-10-09T02:11:25.724Z,91.80
2022-10-09T02:13:53.400Z,91.80
2022-10-09T02:16:36.814Z,91.70
2022-10-09T02:19:23.008Z,91.60
2022-10-09T02:22:05.630Z,91.50
2022-10-09T02:24:32.976Z,91.50
2022-10-09T02:27:00.695Z,91.60
2022-10-09T02:29:27.491Z,91.60
2022-10-09T02:31:54.417Z,91.80
2022-10-09T02:34:21.785Z,91.90
2022-10-09T02:36:49.758Z,92.10
2022-10-09T02:39:17.072Z,92.10
2022-10-09T02:41:43.911Z,92.10
2022-10-09T02:44:10.817Z,91.90
2022-10-09T02:46:38.595Z,91.70
2022-10-09T02:49:06.647Z,91.60
2022-10-09T02:51:33.716Z,91.60
2022-10-09T02:54:00.560Z,91.50
2022-10-09T02:56:28.099Z,91.50
2022-10-09T02:58:54.912Z,91.50
2022-10-09T03:01:22.446Z,91.60
2022-10-09T03:03:49.395Z,91.70
2022-10-09T03:06:18.189Z,91.70
2022-10-09T03:08:47.997Z,91.80
2022-10-09T03:11:16.041Z,91.90
2022-10-09T03:13:43.207Z,91.90
2022-10-09T03:16:19.323Z,91.90
2022-10-09T03:18:56.109Z,91.80
2022-10-09T03:21:25.322Z,91.70
2022-10-09T03:23:53.450Z,91.60
2022-10-09T03:26:25.660Z,91.60
2022-10-09T03:28:53.602Z,91.60
2022-10-09T03:31:46.987Z,91.60
2022-10-09T03:34:10.875Z,91.50
2022-10-09T03:36:37.687Z,91.60
2022-10-09T03:39:04.471Z,91.60
2022-10-09T03:41:31.238Z,91.50
2022-10-09T03:43:58.016Z,91.50
2022-10-09T03:46:24.950Z,91.50
2022-10-09T03:48:51.781Z,91.50
2022-10-09T03:51:18.551Z,91.50
2022-10-09T03:53:45.363Z,91.50
2022-10-09T03:56:12.170Z,91.60
2022-10-09T03:58:38.977Z,91.60
2022-10-09T04:01:05.782Z,91.60
2022-10-09T04:03:32.628Z,91.60
2022-10-09T04:05:59.512Z,91.60
2022-10-09T04:08:26.467Z,91.60
2022-10-09T04:10:58.063Z,91.60
2022-10-09T04:13:24.878Z,91.70
2022-10-09T04:15:53.081Z,91.70
2022-10-09T04:18:20.347Z,91.70
2022-10-09T04:20:51.446Z,91.70
2022-10-09T04:23:19.692Z,91.70
2022-10-09T04:25:46.586Z,91.80
2022-10-09T04:28:14.003Z,91.70
2022-10-09T04:30:41.163Z,91.60
2022-10-09T04:33:12.556Z,91.60
2022-10-09T04:35:44.256Z,91.50
2022-10-09T04:38:11.461Z,91.40
2022-10-09T04:40:38.379Z,91.20
2022-10-09T04:43:05.329Z,91.10
2022-10-09T04:45:32.298Z,90.90
2022-10-09T04:47:59.259Z,90.90
2022-10-09T04:50:26.056Z,90.90
2022-10-09T04:52:52.948Z,91.10
2022-10-09T04:55:19.790Z,91.10
2022-10-09T04:57:46.568Z,91.10
2022-10-09T05:00:14.203Z,91.20
2022-10-09T05:02:41.003Z,91.20
2022-10-09T05:05:08.242Z,91.20
2022-10-09T05:07:34.980Z,91.20
2022-10-09T05:10:01.743Z,91.20
2022-10-09T05:12:28.497Z,91.20
2022-10-09T05:14:55.300Z,91.20
2022-10-09T05:17:23.457Z,91.10
2022-10-09T05:19:50.591Z,91.10
2022-10-09T05:22:17.352Z,91.10
2022-10-09T05:24:44.095Z,91.10
2022-10-09T05:27:10.871Z,91.00
2022-10-09T05:29:37.623Z,91.00
2022-10-09T05:32:04.481Z,91.00
2022-10-09T05:34:34.178Z,91.10
2022-10-09T05:37:01.094Z,91.10
2022-10-09T05:39:28.002Z,91.10
2022-10-09T05:41:54.966Z,91.10
2022-10-09T05:44:21.914Z,91.00
2022-10-09T05:46:51.654Z,91.00
2022-10-09T05:49:18.788Z,91.00
2022-10-09T05:51:45.576Z,91.10
2022-10-09T05:54:16.967Z,91.10
2022-10-09T05:56:44.596Z,91.20
2022-10-09T05:59:18.933Z,91.10
2022-10-09T06:01:48.772Z,91.10
2022-10-09T06:04:17.714Z,91.20
2022-10-09T06:06:46.758Z,91.20
2022-10-09T06:09:14.136Z,91.20
2022-10-09T06:11:41.567Z,91.20
2022-10-09T06:14:10.439Z,91.10
2022-10-09T06:16:41.403Z,91.10
2022-10-09T06:19:10.133Z,91.10
2022-10-09T06:21:36.878Z,91.10
2022-10-09T06:24:05.001Z,91.10
2022-10-09T06:26:32.223Z,91.00
2022-10-09T06:29:00.903Z,90.60
2022-10-09T06:31:30.449Z,90.50
2022-10-09T06:33:59.605Z,90.50
2022-10-09T06:36:28.423Z,90.50
2022-10-09T06:38:55.197Z,90.50
2022-10-09T06:41:26.612Z,90.60
2022-10-09T06:44:04.231Z,90.50
2022-10-09T06:46:36.278Z,90.50
2022-10-09T06:49:04.435Z,90.50
2022-10-09T06:51:32.457Z,90.20
2022-10-09T06:54:01.026Z,89.80
2022-10-09T06:56:30.059Z,89.20
2022-10-09T06:58:59.725Z,89.20
2022-10-09T07:01:30.309Z,89.10
2022-10-09T07:03:59.299Z,89.00
2022-10-09T07:06:31.423Z,89.00
2022-10-09T07:09:04.316Z,89.10
2022-10-09T07:11:34.664Z,88.90
2022-10-09T07:14:02.794Z,88.60
2022-10-09T07:16:32.374Z,88.50
2022-10-09T07:19:01.212Z,88.30
2022-10-09T07:21:28.043Z,88.20
2022-10-09T07:23:54.851Z,88.20
2022-10-09T07:26:24.383Z,87.90
2022-10-09T07:28:51.674Z,87.70
2022-10-09T07:31:18.512Z,87.50
2022-10-09T07:33:53.231Z,87.20
2022-10-09T07:36:20.043Z,87.20
2022-10-09T07:38:54.335Z,87.00
2022-10-09T07:41:22.426Z,86.70
2022-10-09T07:43:49.598Z,86.40
2022-10-09T07:46:19.217Z,86.10
2022-10-09T07:48:46.173Z,85.90
2022-10-09T07:51:20.224Z,85.70
2022-10-09T07:53:47.307Z,85.50
2022-10-09T07:56:15.676Z,85.60
2022-10-09T07:58:43.516Z,85.70
2022-10-09T08:01:10.830Z,85.90
2022-10-09T08:03:38.362Z,86.10
2022-10-09T08:06:05.528Z,86.30
2022-10-09T08:08:32.735Z,86.70
2022-10-09T08:10:59.762Z,87.10
2022-10-09T08:13:26.553Z,87.40
2022-10-09T08:15:57.805Z,87.90
2022-10-09T08:18:24.776Z,88.10
2022-10-09T08:21:00.726Z,88.50
2022-10-09T08:23:27.679Z,89.00
2022-10-09T08:25:54.682Z,89.40
2022-10-09T08:28:22.183Z,89.90
2022-10-09T08:30:49.148Z,90.50
2022-10-09T08:33:20.276Z,91.20
2022-10-09T08:35:47.752Z,91.30
2022-10-09T08:38:37.413Z,91.70
2022-10-09T08:41:04.788Z,92.00
2022-10-09T08:43:39.899Z,92.40
2022-10-09T08:46:17.184Z,92.80
2022-10-09T08:48:48.316Z,93.20
2022-10-09T08:51:27.838Z,93.70
2022-10-09T08:54:36.062Z,94.50
2022-10-09T08:57:09.772Z,95.20
2022-10-09T08:59:36.664Z,95.70
2022-10-09T09:02:18.277Z,95.70
2022-10-09T09:05:06.412Z,95.70
2022-10-09T09:07:49.295Z,95.70
2022-10-09T09:10:33.845Z,95.70
2022-10-09T09:13:26.716Z,95.70
2022-10-09T09:16:07.431Z,95.70
2022-10-09T09:18:49.099Z,95.70
2022-10-09T09:21:47.363Z,95.70
2022-10-09T09:24:17.584Z,95.70
2022-10-09T09:26:47.113Z,95.70
2022-10-09T09:29:15.809Z,95.70
2022-10-09T09:31:43.229Z,95.70
2022-10-09T09:34:17.957Z,95.70
2022-10-09T09:36:57.933Z,95.70
2022-10-09T09:42:17.443Z,95.70
2022-10-09T09:45:00.319Z,95.70
2022-10-09T09:47:34.561Z,95.70
2022-10-09T09:50:04.095Z,95.70
2022-10-09T09:52:35.699Z,95.70
2022-10-09T09:55:02.840Z,95.70
2022-10-09T09:57:35.953Z,95.70
2022-10-09T10:00:27.297Z,95.70
2022-10-09T10:03:04.824Z,95.20
2022-10-09T10:05:36.790Z,94.90
2022-10-09T10:08:34.381Z,94.70
2022-10-09T10:11:03.491Z,94.20
2022-10-09T10:13:38.632Z,94.10
2022-10-09T10:16:08.771Z,93.90
2022-10-09T10:18:41.087Z,92.50
2022-10-09T10:21:14.243Z,92.30
2022-10-09T10:23:48.853Z,91.60
2022-10-09T10:26:34.836Z,91.80
2022-10-09T10:29:08.853Z,91.70
2022-10-09T10:31:59.299Z,91.60
2022-10-09T10:35:01.160Z,91.60
2022-10-09T10:37:27.857Z,90.10
2022-10-09T10:39:59.402Z,90.10
2022-10-09T10:42:56.079Z,89.70
2022-10-09T10:45:33.457Z,89.70
2022-10-09T10:48:01.437Z,89.50
2022-10-09T10:50:36.310Z,89.80
2022-10-09T10:53:16.283Z,89.70
2022-10-09T10:56:04.937Z,89.40
2022-10-09T10:59:12.745Z,88.60
2022-10-09T11:02:00.025Z,89.20
2022-10-09T11:04:33.800Z,89.00
2022-10-09T11:07:09.970Z,88.10
2022-10-09T11:10:06.188Z,88.30
2022-10-09T11:12:48.256Z,88.10
2022-10-09T11:15:37.775Z,88.10
2022-10-09T11:18:43.336Z,88.40
2022-10-09T11:21:16.199Z,87.80
2022-10-09T11:24:04.333Z,87.60
2022-10-09T11:26:38.016Z,87.80
2022-10-09T11:29:35.290Z,88.40
2022-10-09T11:32:09.303Z,87.70
2022-10-09T11:34:52.710Z,87.00
2022-10-09T11:37:23.942Z,86.90
2022-10-09T11:39:50.923Z,86.40
2022-10-09T11:42:21.548Z,84.90
2022-10-09T11:45:14.731Z,84.30
2022-10-09T11:48:04.873Z,84.10
2022-10-09T11:51:08.472Z,84.30
2022-10-09T11:53:37.268Z,83.40
2022-10-09T11:56:06.575Z,84.10
2022-10-09T11:58:33.964Z,84.50
2022-10-09T12:01:24.004Z,81.90
2022-10-09T12:04:11.712Z,82.90
2022-10-09T12:07:09.301Z,83.60
2022-10-09T12:09:39.670Z,84.00
2022-10-09T12:12:09.178Z,84.10
2022-10-09T12:14:37.865Z,83.40
2022-10-09T12:17:22.650Z,84.10
2022-10-09T12:20:15.587Z,83.90
2022-10-09T12:23:01.490Z,84.20
2022-10-09T12:25:44.845Z,84.50
2022-10-09T12:28:30.436Z,84.00
2022-10-09T12:31:00.140Z,83.30
2022-10-09T12:33:48.331Z,82.30
2022-10-09T12:36:22.433Z,82.70
2022-10-09T12:38:49.248Z,83.50
2022-10-09T12:41:32.780Z,84.10
2022-10-09T12:44:02.310Z,84.80
2022-10-09T12:46:34.846Z,85.10
2022-10-09T12:49:14.238Z,84.40
2022-10-09T12:51:40.980Z,83.70
2022-10-09T12:54:08.973Z,83.10
2022-10-09T12:56:38.465Z,84.00
2022-10-09T12:59:07.072Z,84.40
2022-10-09T13:01:35.110Z,84.10
2022-10-09T13:04:05.138Z,84.00
2022-10-09T13:06:45.237Z,83.50
2022-10-09T13:09:24.959Z,83.80
2022-10-09T13:12:20.035Z,83.70
2022-10-09T13:15:02.841Z,83.00
2022-10-09T13:17:36.309Z,83.20
2022-10-09T13:20:12.386Z,83.30
2022-10-09T13:22:39.818Z,83.80
2022-10-09T13:25:07.105Z,84.10
2022-10-09T13:27:37.958Z,84.30
2022-10-09T13:30:06.329Z,84.60
2022-10-09T13:32:33.288Z,85.00
2022-10-09T13:35:00.055Z,85.10
2022-10-09T13:37:27.225Z,84.50
2022-10-09T13:39:58.800Z,83.60
2022-10-09T13:42:27.634Z,83.50
2022-10-09T13:44:54.472Z,83.20
2022-10-09T13:47:24.396Z,83.00
2022-10-09T13:49:51.631Z,83.50
2022-10-09T13:52:18.478Z,83.80
2022-10-09T13:54:45.290Z,83.80
2022-10-09T13:57:12.182Z,84.00
2022-10-09T13:59:39.107Z,83.50
2022-10-09T14:02:05.900Z,82.40
2022-10-09T14:04:33.487Z,82.90
2022-10-09T14:07:00.246Z,82.70
2022-10-09T14:09:27.047Z,82.30
2022-10-09T14:11:53.780Z,82.20
2022-10-09T14:14:22.330Z,82.50
2022-10-09T14:16:50.655Z,84.30
2022-10-09T14:19:17.846Z,84.80
2022-10-09T14:21:47.817Z,84.30
2022-10-09T14:24:15.504Z,83.80
2022-10-09T14:26:44.255Z,83.80
2022-10-09T14:29:12.272Z,84.00
2022-10-09T14:31:38.994Z,84.50
2022-10-09T14:34:05.754Z,84.20
2022-10-09T14:36:32.671Z,84.20
2022-10-09T14:39:01.166Z,84.50
2022-10-09T14:41:30.621Z,85.10
2022-10-09T14:43:59.864Z,85.30
2022-10-09T14:46:28.603Z,85.30
2022-10-09T14:48:56.540Z,85.40
2022-10-09T14:51:25.585Z,85.40
2022-10-09T14:53:56.030Z,86.50
2022-10-09T14:56:22.731Z,86.80
2022-10-09T14:58:49.471Z,86.90
2022-10-09T15:01:18.081Z,86.50
2022-10-09T15:03:46.174Z,86.70
2022-10-09T15:06:13.097Z,86.40
2022-10-09T15:08:43.592Z,86.70
2022-10-09T15:11:12.163Z,87.10
2022-10-09T15:13:39.314Z,87.20
2022-10-09T15:16:15.266Z,87.50
2022-10-09T15:18:42.702Z,88.10
2022-10-09T15:21:12.454Z,88.20
2022-10-09T15:23:39.505Z,88.10
2022-10-09T15:26:06.798Z,88.20
2022-10-09T15:28:34.868Z,88.40
2022-10-09T15:31:03.294Z,88.80
2022-10-09T15:33:30.122Z,89.00
2022-10-09T15:35:56.843Z,89.20
2022-10-09T15:38:24.625Z,89.30
2022-10-09T15:40:54.017Z,89.70
2022-10-09T15:43:24.515Z,89.80
2022-10-09T15:45:54.134Z,90.50
2022-10-09T15:48:23.692Z,91.90
2022-10-09T15:50:52.289Z,92.00
2022-10-09T15:53:27.265Z,92.20
2022-10-09T15:55:57.197Z,93.30
2022-10-09T16:46:31.627Z,95.70
2022-10-09T16:48:59.690Z,95.70
2022-10-09T16:51:30.294Z,95.70
2022-10-09T16:53:59.156Z,95.70
2022-10-09T16:56:28.758Z,95.70
2022-10-09T16:59:00.315Z,95.70
2022-10-09T17:01:27.709Z,95.70
2022-10-09T17:03:55.820Z,95.70
2022-10-09T17:06:23.890Z,95.70
2022-10-09T17:08:51.936Z,95.70
2022-10-09T17:11:19.434Z,95.70
2022-10-09T17:13:46.839Z,95.70
2022-10-09T17:16:18.595Z,95.70
2022-10-09T17:18:46.343Z,95.70
2022-10-09T17:21:14.276Z,95.70
2022-10-09T17:23:41.421Z,95.70
2022-10-09T17:26:11.729Z,95.70
2022-10-09T17:28:39.681Z,95.70
2022-10-09T17:31:10.472Z,95.70
2022-10-09T17:33:41.144Z,95.70
2022-10-09T17:36:09.390Z,95.70
2022-10-09T17:38:36.369Z,95.70
2022-10-09T17:41:09.620Z,95.70
2022-10-09T17:43:36.828Z,95.70
2022-10-09T17:46:04.104Z,95.70
2022-10-09T17:48:33.198Z,95.70
2022-10-09T17:51:01.682Z,95.70
2022-10-09T17:53:28.543Z,95.70
2022-10-09T17:55:56.721Z,95.70
2022-10-09T17:58:24.385Z,95.70
2022-10-09T18:00:51.590Z,95.70
2022-10-09T18:03:18.853Z,95.70
2022-10-09T18:05:47.867Z,95.70
2022-10-09T18:08:16.599Z,95.70
2022-10-09T18:10:43.804Z,95.70
2022-10-09T18:13:11.634Z,95.70
2022-10-09T18:15:39.572Z,95.70
2022-10-09T18:18:06.963Z,95.70
2022-10-09T18:20:38.240Z,95.70
2022-10-09T18:23:05.226Z,95.70
2022-10-09T18:25:32.304Z,95.70
2022-10-09T18:27:59.195Z,95.70
2022-10-09T18:30:26.168Z,95.70
2022-10-09T18:32:53.362Z,95.70
2022-10-09T18:35:20.253Z,95.70
2022-10-09T18:37:47.026Z,95.70
2022-10-09T18:40:14.138Z,95.70
2022-10-09T18:42:41.012Z,95.70
2022-10-09T18:45:09.979Z,95.70
2022-10-09T18:47:36.794Z,95.70
2022-10-09T18:50:07.077Z,95.70
2022-10-09T18:52:34.960Z,95.70
2022-10-09T18:55:02.641Z,95.70
2022-10-09T18:57:29.637Z,95.70
2022-10-09T18:59:57.443Z,95.70
2022-10-09T19:02:26.914Z,95.70
2022-10-09T19:04:54.691Z,95.70
2022-10-09T19:07:21.612Z,95.70
2022-10-09T19:09:56.348Z,95.70
2022-10-09T19:12:24.796Z,95.70
2022-10-09T19:14:51.678Z,95.70
2022-10-09T19:17:18.592Z,95.70
2022-10-09T19:19:45.442Z,95.70
2022-10-09T19:22:16.388Z,95.70
2022-10-09T19:24:44.465Z,95.70
2022-10-09T19:27:11.583Z,95.70
2022-10-09T19:29:38.520Z,95.70
2022-10-09T19:32:05.458Z,95.70
2022-10-09T19:34:32.596Z,95.70
2022-10-09T19:36:59.536Z,95.70
2022-10-09T19:39:26.594Z,95.70
2022-10-09T19:41:53.615Z,95.70
2022-10-09T19:44:21.062Z,95.70
2022-10-09T19:46:48.481Z,95.70
2022-10-09T19:49:15.294Z,95.70
2022-10-09T19:51:42.227Z,95.70
2022-10-09T19:54:09.925Z,95.70
2022-10-09T19:56:37.117Z,95.70
2022-10-09T19:59:07.517Z,95.70
2022-10-09T20:01:35.783Z,95.70
2022-10-09T20:04:13.625Z,95.70
2022-10-09T20:06:44.792Z,95.70
2022-10-09T20:09:12.490Z,95.70
2022-10-09T20:11:39.991Z,95.70
2022-10-09T20:14:12.262Z,95.70
2022-10-09T20:16:41.415Z,95.70
2022-10-09T20:19:10.427Z,95.70
2022-10-09T20:21:38.708Z,95.70
2022-10-09T20:24:06.480Z,95.70
2022-10-09T20:26:40.928Z,95.70
2022-10-09T20:29:09.687Z,95.70
2022-10-09T20:31:36.511Z,95.70
2022-10-09T20:34:03.785Z,95.70
2022-10-09T20:36:40.661Z,95.70
2022-10-09T20:39:14.167Z,95.70
2022-10-09T20:41:45.256Z,95.70
2022-10-09T20:44:12.462Z,95.70
2022-10-09T20:46:40.830Z,95.70
2022-10-09T20:49:13.460Z,95.70
2022-10-09T20:51:41.379Z,95.70
2022-10-09T20:54:13.832Z,95.70
2022-10-09T20:56:40.735Z,95.70
2022-10-09T20:59:15.213Z,95.70
2022-10-09T21:01:45.350Z,95.70
2022-10-09T21:04:14.238Z,95.70
2022-10-09T21:06:45.208Z,95.70
2022-10-09T21:09:14.372Z,95.70
2022-10-09T21:11:41.691Z,95.70
2022-10-09T21:14:09.836Z,95.70
2022-10-09T21:16:36.925Z,95.70
2022-10-09T21:19:04.807Z,95.70
2022-10-09T21:21:32.687Z,95.70
2022-10-09T21:24:00.213Z,95.70
2022-10-09T21:26:28.706Z,95.70
2022-10-09T21:28:59.730Z,95.70
2022-10-09T21:31:30.948Z,95.70
2022-10-09T21:33:59.368Z,95.70
2022-10-09T21:36:32.450Z,95.70
2022-10-09T21:39:01.935Z,95.70
2022-10-09T21:41:29.132Z,95.70
2022-10-09T21:43:56.440Z,95.70
2022-10-09T21:46:28.478Z,95.70
2022-10-09T21:48:55.320Z,95.70
2022-10-09T21:52:06.592Z,95.70
2022-10-09T21:54:34.942Z,95.70
2022-10-09T21:57:02.012Z,95.70
2022-10-09T21:59:29.109Z,95.70
2022-10-09T22:01:55.876Z,95.70
2022-10-09T22:04:22.733Z,95.70
2022-10-09T22:06:52.663Z,95.70
2022-10-09T22:09:19.438Z,95.70
2022-10-09T22:11:46.284Z,95.70
2022-10-09T22:14:13.282Z,95.70
2022-10-09T22:16:40.140Z,95.70
2022-10-09T22:19:07.203Z,95.70
2022-10-09T22:21:34.053Z,95.70
2022-10-09T22:24:01.102Z,95.70
2022-10-09T22:26:27.995Z,95.70
2022-10-09T22:28:54.797Z,95.70
2022-10-09T22:31:26.762Z,95.70
2022-10-09T22:33:55.299Z,95.70
2022-10-09T22:36:24.098Z,95.70
2022-10-09T22:38:54.074Z,95.70
2022-10-09T22:41:21.974Z,95.70
2022-10-09T22:43:50.559Z,95.70
2022-10-09T22:46:25.793Z,95.70
2022-10-09T22:48:53.085Z,95.70
2022-10-09T22:51:21.474Z,95.70
2022-10-09T22:53:51.203Z,95.70
2022-10-09T22:56:20.080Z,95.70
2022-10-09T22:58:47.881Z,95.70
2022-10-09T23:01:20.767Z,95.70
2022-10-09T23:03:47.611Z,95.70
2022-10-09T23:06:17.120Z,95.70
2022-10-09T23:08:45.740Z,95.70
2022-10-09T23:11:13.054Z,95.70
2022-10-09T23:13:40.099Z,95.70
2022-10-09T23:16:08.912Z,95.70
2022-10-09T23:18:37.019Z,95.70
2022-10-09T23:21:23.167Z,95.70
2022-10-09T23:23:51.305Z,95.70
2022-10-09T23:26:24.191Z,95.70
2022-10-09T23:28:55.870Z,95.70
2022-10-09T23:31:23.090Z,95.70
2022-10-09T23:33:49.981Z,95.70
2022-10-09T23:36:19.276Z,95.70
2022-10-09T23:38:46.210Z,95.70
2022-10-09T23:41:15.504Z,95.70
2022-10-09T23:43:45.272Z,95.70
2022-10-09T23:46:14.681Z,95.70
2022-10-09T23:48:42.344Z,95.70
2022-10-09T23:51:09.465Z,95.70
2022-10-09T23:53:36.336Z,95.70
2022-10-09T23:56:27.812Z,95.70
2022-10-09T23:58:55.919Z,95.70
